Terminal Aerodrome Forecast
Issued by NWS

Home | Current Version | Previous Version | Text Only | Print | Product List | Glossary On
Versions: 1 2 3 4 5 6 7 8 9 10 11 12 13 14 15 16 17 18 19 20 21 22
000
FTUS43 KIWX 171900 AAA
TAFSBN
TAF AMD
KSBN 171941Z 1720/1818 28013KT P6SM OVC022
      TEMPO 1720/1723 OVC018
     FM172300 29010KT 4SM -SHSN OVC015
      TEMPO 1723/1801 2SM -SHSN
     FM180400 28007KT P6SM OVC025=

USA.gov is the U.S. government's official web portal to all federal, state and local government web resources and services.